sensor_id;sensor_type;location;lat;lon;timestamp;P1;durP1;ratioP1;P2;durP2;ratioP2
2320;SDS011;15376;48.540;9.268;2022-09-01T00:01:00;15.97;;;14.47;;
2320;SDS011;15376;48.540;9.268;2022-09-01T00:03:27;15.40;;;13.93;;
2320;SDS011;15376;48.540;9.268;2022-09-01T00:05:53;17.80;;;16.20;;
2320;SDS011;15376;48.540;9.268;2022-09-01T00:08:21;15.53;;;14.03;;
2320;SDS011;15376;48.540;9.268;2022-09-01T00:10:47;15.97;;;14.53;;
2320;SDS011;15376;48.540;9.268;2022-09-01T00:13:14;18.00;;;14.60;;
2320;SDS011;15376;48.540;9.268;2022-09-01T00:15:40;19.43;;;14.37;;
2320;SDS011;15376;48.540;9.268;2022-09-01T00:18:05;18.17;;;13.20;;
2320;SDS011;15376;48.540;9.268;2022-09-01T00:20:31;15.03;;;13.53;;
2320;SDS011;15376;48.540;9.268;2022-09-01T00:22:56;14.57;;;13.17;;
2320;SDS011;15376;48.540;9.268;2022-09-01T00:25:22;16.43;;;14.73;;
2320;SDS011;15376;48.540;9.268;2022-09-01T00:27:48;18.43;;;14.97;;
2320;SDS011;15376;48.540;9.268;2022-09-01T00:30:14;16.33;;;14.73;;
2320;SDS011;15376;48.540;9.268;2022-09-01T00:32:40;13.77;;;12.37;;
2320;SDS011;15376;48.540;9.268;2022-09-01T00:35:10;14.60;;;13.20;;
2320;SDS011;15376;48.540;9.268;2022-09-01T00:37:36;15.60;;;14.10;;
2320;SDS011;15376;48.540;9.268;2022-09-01T00:40:02;14.70;;;13.20;;
2320;SDS011;15376;48.540;9.268;2022-09-01T00:42:28;14.83;;;13.43;;
2320;SDS011;15376;48.540;9.268;2022-09-01T00:44:53;17.93;;;15.50;;
2320;SDS011;15376;48.540;9.268;2022-09-01T00:47:19;16.93;;;15.33;;
2320;SDS011;15376;48.540;9.268;2022-09-01T00:49:46;17.37;;;15.57;;
2320;SDS011;15376;48.540;9.268;2022-09-01T00:52:21;17.33;;;15.63;;
2320;SDS011;15376;48.540;9.268;2022-09-01T00:54:49;17.87;;;15.33;;
2320;SDS011;15376;48.540;9.268;2022-09-01T00:57:18;17.43;;;13.53;;
2320;SDS011;15376;48.540;9.268;2022-09-01T00:59:49;17.47;;;15.77;;
2320;SDS011;15376;48.540;9.268;2022-09-01T01:02:18;19.20;;;17.10;;
2320;SDS011;15376;48.540;9.268;2022-09-01T01:04:44;16.50;;;15.00;;
2320;SDS011;15376;48.540;9.268;2022-09-01T01:07:10;20.17;;;15.60;;
2320;SDS011;15376;48.540;9.268;2022-09-01T01:09:37;17.07;;;15.37;;
2320;SDS011;15376;48.540;9.268;2022-09-01T01:12:06;18.30;;;15.17;;
2320;SDS011;15376;48.540;9.268;2022-09-01T01:14:35;16.60;;;14.97;;
2320;SDS011;15376;48.540;9.268;2022-09-01T01:17:04;15.10;;;13.57;;
2320;SDS011;15376;48.540;9.268;2022-09-01T01:19:43;21.33;;;14.30;;
2320;SDS011;15376;48.540;9.268;2022-09-01T01:22:41;15.30;;;13.80;;
2320;SDS011;15376;48.540;9.268;2022-09-01T01:25:32;15.77;;;14.30;;
2320;SDS011;15376;48.540;9.268;2022-09-01T01:28:10;15.17;;;13.57;;
2320;SDS011;15376;48.540;9.268;2022-09-01T01:30:43;14.30;;;12.80;;
2320;SDS011;15376;48.540;9.268;2022-09-01T01:33:16;14.93;;;13.50;;
2320;SDS011;15376;48.540;9.268;2022-09-01T01:35:43;17.13;;;15.43;;
2320;SDS011;15376;48.540;9.268;2022-09-01T01:38:09;17.23;;;15.53;;
2320;SDS011;15376;48.540;9.268;2022-09-01T01:40:36;17.57;;;15.70;;
2320;SDS011;15376;48.540;9.268;2022-09-01T01:43:03;20.27;;;18.07;;
2320;SDS011;15376;48.540;9.268;2022-09-01T01:45:28;22.93;;;20.20;;
2320;SDS011;15376;48.540;9.268;2022-09-01T01:47:54;19.30;;;17.30;;
2320;SDS011;15376;48.540;9.268;2022-09-01T01:50:25;18.67;;;15.77;;
2320;SDS011;15376;48.540;9.268;2022-09-01T01:52:54;15.83;;;14.37;;
2320;SDS011;15376;48.540;9.268;2022-09-01T01:55:22;16.33;;;14.20;;
2320;SDS011;15376;48.540;9.268;2022-09-01T01:57:51;19.53;;;17.13;;
2320;SDS011;15376;48.540;9.268;2022-09-01T02:00:19;16.67;;;15.23;;
2320;SDS011;15376;48.540;9.268;2022-09-01T02:02:46;16.53;;;15.03;;
2320;SDS011;15376;48.540;9.268;2022-09-01T02:05:21;16.87;;;15.37;;
2320;SDS011;15376;48.540;9.268;2022-09-01T02:07:56;16.60;;;15.00;;
2320;SDS011;15376;48.540;9.268;2022-09-01T02:10:27;16.97;;;15.37;;
2320;SDS011;15376;48.540;9.268;2022-09-01T02:12:59;15.93;;;14.63;;
2320;SDS011;15376;48.540;9.268;2022-09-01T02:15:32;17.00;;;15.17;;
2320;SDS011;15376;48.540;9.268;2022-09-01T02:18:03;18.80;;;15.03;;
2320;SDS011;15376;48.540;9.268;2022-09-01T02:20:29;17.23;;;15.47;;
2320;SDS011;15376;48.540;9.268;2022-09-01T02:22:56;18.17;;;16.47;;
2320;SDS011;15376;48.540;9.268;2022-09-01T02:25:23;20.00;;;16.77;;
2320;SDS011;15376;48.540;9.268;2022-09-01T02:27:48;19.00;;;17.23;;
2320;SDS011;15376;48.540;9.268;2022-09-01T02:30:17;15.93;;;14.33;;
2320;SDS011;15376;48.540;9.268;2022-09-01T02:32:43;19.93;;;18.00;;
2320;SDS011;15376;48.540;9.268;2022-09-01T02:35:08;16.73;;;15.17;;
2320;SDS011;15376;48.540;9.268;2022-09-01T02:37:34;18.70;;;16.20;;
2320;SDS011;15376;48.540;9.268;2022-09-01T02:40:04;18.40;;;16.50;;
2320;SDS011;15376;48.540;9.268;2022-09-01T02:42:35;15.97;;;14.57;;
2320;SDS011;15376;48.540;9.268;2022-09-01T02:45:05;19.67;;;17.10;;
2320;SDS011;15376;48.540;9.268;2022-09-01T02:47:35;16.50;;;14.83;;
2320;SDS011;15376;48.540;9.268;2022-09-01T02:50:05;17.13;;;15.00;;
2320;SDS011;15376;48.540;9.268;2022-09-01T02:52:30;15.77;;;14.20;;
2320;SDS011;15376;48.540;9.268;2022-09-01T02:55:01;15.57;;;14.20;;
2320;SDS011;15376;48.540;9.268;2022-09-01T02:57:27;16.33;;;14.70;;
2320;SDS011;15376;48.540;9.268;2022-09-01T02:59:53;18.50;;;15.83;;
2320;SDS011;15376;48.540;9.268;2022-09-01T03:02:22;16.30;;;14.70;;
2320;SDS011;15376;48.540;9.268;2022-09-01T03:04:50;17.87;;;16.17;;
2320;SDS011;15376;48.540;9.268;2022-09-01T03:07:18;16.00;;;14.40;;
2320;SDS011;15376;48.540;9.268;2022-09-01T03:09:45;18.80;;;15.27;;
2320;SDS011;15376;48.540;9.268;2022-09-01T03:12:11;16.43;;;13.80;;
2320;SDS011;15376;48.540;9.268;2022-09-01T03:14:36;15.90;;;14.40;;
2320;SDS011;15376;48.540;9.268;2022-09-01T03:17:01;17.20;;;15.60;;
2320;SDS011;15376;48.540;9.268;2022-09-01T03:19:27;17.30;;;15.70;;
2320;SDS011;15376;48.540;9.268;2022-09-01T03:21:56;20.67;;;16.83;;
2320;SDS011;15376;48.540;9.268;2022-09-01T03:24:24;17.13;;;15.63;;
2320;SDS011;15376;48.540;9.268;2022-09-01T03:26:49;18.37;;;16.57;;
2320;SDS011;15376;48.540;9.268;2022-09-01T03:29:16;17.40;;;15.70;;
2320;SDS011;15376;48.540;9.268;2022-09-01T03:31:42;15.63;;;14.10;;
2320;SDS011;15376;48.540;9.268;2022-09-01T03:34:07;16.87;;;15.30;;
2320;SDS011;15376;48.540;9.268;2022-09-01T03:36:35;16.07;;;14.57;;
2320;SDS011;15376;48.540;9.268;2022-09-01T03:39:01;17.37;;;15.67;;
2320;SDS011;15376;48.540;9.268;2022-09-01T03:41:27;14.80;;;13.43;;
2320;SDS011;15376;48.540;9.268;2022-09-01T03:43:54;14.90;;;13.50;;
2320;SDS011;15376;48.540;9.268;2022-09-01T03:46:22;14.97;;;13.67;;
2320;SDS011;15376;48.540;9.268;2022-09-01T03:48:49;17.03;;;15.50;;
2320;SDS011;15376;48.540;9.268;2022-09-01T03:51:17;19.30;;;15.20;;
2320;SDS011;15376;48.540;9.268;2022-09-01T03:53:44;22.17;;;19.93;;
2320;SDS011;15376;48.540;9.268;2022-09-01T03:56:11;17.80;;;16.00;;
2320;SDS011;15376;48.540;9.268;2022-09-01T03:58:39;22.30;;;20.10;;
2320;SDS011;15376;48.540;9.268;2022-09-01T04:01:08;18.57;;;16.77;;
2320;SDS011;15376;48.540;9.268;2022-09-01T04:03:35;19.67;;;17.77;;
2320;SDS011;15376;48.540;9.268;2022-09-01T04:06:03;21.07;;;19.17;;
2320;SDS011;15376;48.540;9.268;2022-09-01T04:08:28;21.73;;;19.63;;
2320;SDS011;15376;48.540;9.268;2022-09-01T04:10:55;19.17;;;17.17;;
2320;SDS011;15376;48.540;9.268;2022-09-01T04:13:26;19.37;;;17.67;;
2320;SDS011;15376;48.540;9.268;2022-09-01T04:15:54;22.07;;;19.93;;
2320;SDS011;15376;48.540;9.268;2022-09-01T04:18:20;23.43;;;18.53;;
2320;SDS011;15376;48.540;9.268;2022-09-01T04:20:48;23.10;;;20.80;;
2320;SDS011;15376;48.540;9.268;2022-09-01T04:23:28;22.27;;;20.07;;
2320;SDS011;15376;48.540;9.268;2022-09-01T04:26:02;23.60;;;21.30;;
2320;SDS011;15376;48.540;9.268;2022-09-01T04:28:33;20.47;;;18.37;;
2320;SDS011;15376;48.540;9.268;2022-09-01T04:31:04;20.13;;;18.30;;
2320;SDS011;15376;48.540;9.268;2022-09-01T04:33:33;25.17;;;21.50;;
2320;SDS011;15376;48.540;9.268;2022-09-01T04:38:48;20.97;;;18.87;;
2320;SDS011;15376;48.540;9.268;2022-09-01T04:41:24;23.20;;;20.80;;
2320;SDS011;15376;48.540;9.268;2022-09-01T04:43:51;24.53;;;21.93;;
2320;SDS011;15376;48.540;9.268;2022-09-01T04:46:21;23.70;;;21.30;;
2320;SDS011;15376;48.540;9.268;2022-09-01T04:48:47;23.87;;;20.73;;
2320;SDS011;15376;48.540;9.268;2022-09-01T04:51:15;23.17;;;20.77;;
2320;SDS011;15376;48.540;9.268;2022-09-01T04:53:42;23.90;;;21.60;;
2320;SDS011;15376;48.540;9.268;2022-09-01T04:56:12;21.77;;;19.43;;
2320;SDS011;15376;48.540;9.268;2022-09-01T04:58:43;21.07;;;19.03;;
2320;SDS011;15376;48.540;9.268;2022-09-01T05:01:21;20.23;;;18.30;;
2320;SDS011;15376;48.540;9.268;2022-09-01T05:03:48;23.00;;;20.13;;
2320;SDS011;15376;48.540;9.268;2022-09-01T05:06:20;22.37;;;20.27;;
2320;SDS011;15376;48.540;9.268;2022-09-01T05:08:46;19.17;;;17.30;;
2320;SDS011;15376;48.540;9.268;2022-09-01T05:11:12;16.10;;;14.60;;
2320;SDS011;15376;48.540;9.268;2022-09-01T05:13:41;16.97;;;15.30;;
2320;SDS011;15376;48.540;9.268;2022-09-01T05:16:08;13.77;;;12.50;;
2320;SDS011;15376;48.540;9.268;2022-09-01T05:18:39;15.47;;;14.07;;
2320;SDS011;15376;48.540;9.268;2022-09-01T05:21:12;14.40;;;13.00;;
2320;SDS011;15376;48.540;9.268;2022-09-01T05:23:40;15.23;;;13.57;;
2320;SDS011;15376;48.540;9.268;2022-09-01T05:26:14;15.83;;;14.43;;
2320;SDS011;15376;48.540;9.268;2022-09-01T05:28:51;18.87;;;17.07;;
2320;SDS011;15376;48.540;9.268;2022-09-01T05:31:19;20.73;;;18.67;;
2320;SDS011;15376;48.540;9.268;2022-09-01T05:33:46;18.80;;;16.80;;
2320;SDS011;15376;48.540;9.268;2022-09-01T05:36:12;25.03;;;22.47;;
2320;SDS011;15376;48.540;9.268;2022-09-01T05:38:40;23.60;;;20.90;;
2320;SDS011;15376;48.540;9.268;2022-09-01T05:41:06;21.63;;;19.53;;
2320;SDS011;15376;48.540;9.268;2022-09-01T05:43:34;21.70;;;19.50;;
2320;SDS011;15376;48.540;9.268;2022-09-01T05:46:00;21.83;;;19.70;;
2320;SDS011;15376;48.540;9.268;2022-09-01T05:48:27;27.43;;;24.43;;
2320;SDS011;15376;48.540;9.268;2022-09-01T05:50:55;36.77;;;32.50;;
2320;SDS011;15376;48.540;9.268;2022-09-01T05:53:23;29.03;;;26.03;;
2320;SDS011;15376;48.540;9.268;2022-09-01T05:55:51;28.27;;;25.53;;
2320;SDS011;15376;48.540;9.268;2022-09-01T05:58:22;26.93;;;22.30;;
2320;SDS011;15376;48.540;9.268;2022-09-01T06:00:50;23.60;;;20.77;;
2320;SDS011;15376;48.540;9.268;2022-09-01T06:03:18;21.70;;;19.53;;
2320;SDS011;15376;48.540;9.268;2022-09-01T06:05:44;24.83;;;22.37;;
2320;SDS011;15376;48.540;9.268;2022-09-01T06:08:16;25.23;;;22.60;;
2320;SDS011;15376;48.540;9.268;2022-09-01T06:10:47;21.27;;;19.17;;
2320;SDS011;15376;48.540;9.268;2022-09-01T06:13:14;26.37;;;23.37;;
2320;SDS011;15376;48.540;9.268;2022-09-01T06:15:41;23.90;;;19.67;;
2320;SDS011;15376;48.540;9.268;2022-09-01T06:18:09;24.10;;;21.53;;
2320;SDS011;15376;48.540;9.268;2022-09-01T06:20:43;24.07;;;21.50;;
2320;SDS011;15376;48.540;9.268;2022-09-01T06:23:11;23.93;;;20.97;;
2320;SDS011;15376;48.540;9.268;2022-09-01T06:25:38;23.00;;;20.60;;
2320;SDS011;15376;48.540;9.268;2022-09-01T06:28:07;22.87;;;20.67;;
2320;SDS011;15376;48.540;9.268;2022-09-01T06:30:36;24.53;;;22.13;;
2320;SDS011;15376;48.540;9.268;2022-09-01T06:33:03;23.13;;;20.83;;
2320;SDS011;15376;48.540;9.268;2022-09-01T06:35:33;22.60;;;20.33;;
2320;SDS011;15376;48.540;9.268;2022-09-01T06:38:00;22.03;;;19.90;;
2320;SDS011;15376;48.540;9.268;2022-09-01T06:40:26;21.77;;;19.77;;
2320;SDS011;15376;48.540;9.268;2022-09-01T06:42:52;20.37;;;18.30;;
2320;SDS011;15376;48.540;9.268;2022-09-01T06:45:19;23.30;;;21.20;;
2320;SDS011;15376;48.540;9.268;2022-09-01T06:47:46;21.80;;;19.60;;
2320;SDS011;15376;48.540;9.268;2022-09-01T06:50:13;22.80;;;20.30;;
2320;SDS011;15376;48.540;9.268;2022-09-01T06:52:40;21.30;;;19.40;;
2320;SDS011;15376;48.540;9.268;2022-09-01T06:55:07;20.10;;;18.27;;
2320;SDS011;15376;48.540;9.268;2022-09-01T06:57:34;23.73;;;21.33;;
2320;SDS011;15376;48.540;9.268;2022-09-01T07:00:01;18.17;;;16.40;;
2320;SDS011;15376;48.540;9.268;2022-09-01T07:02:31;21.17;;;19.27;;
2320;SDS011;15376;48.540;9.268;2022-09-01T07:04:57;22.47;;;20.27;;
2320;SDS011;15376;48.540;9.268;2022-09-01T07:07:23;20.43;;;18.33;;
2320;SDS011;15376;48.540;9.268;2022-09-01T07:09:58;21.57;;;19.57;;
2320;SDS011;15376;48.540;9.268;2022-09-01T07:12:24;27.00;;;19.73;;
2320;SDS011;15376;48.540;9.268;2022-09-01T07:14:49;22.17;;;19.13;;
2320;SDS011;15376;48.540;9.268;2022-09-01T07:17:14;21.47;;;19.33;;
2320;SDS011;15376;48.540;9.268;2022-09-01T07:19:40;19.20;;;17.40;;
2320;SDS011;15376;48.540;9.268;2022-09-01T07:22:05;18.80;;;17.03;;
2320;SDS011;15376;48.540;9.268;2022-09-01T07:24:30;16.67;;;15.10;;
2320;SDS011;15376;48.540;9.268;2022-09-01T07:26:57;19.97;;;18.07;;
2320;SDS011;15376;48.540;9.268;2022-09-01T07:29:22;19.77;;;17.77;;
2320;SDS011;15376;48.540;9.268;2022-09-01T07:31:49;19.77;;;17.93;;
2320;SDS011;15376;48.540;9.268;2022-09-01T07:34:19;17.73;;;16.07;;
2320;SDS011;15376;48.540;9.268;2022-09-01T07:36:45;18.30;;;16.70;;
2320;SDS011;15376;48.540;9.268;2022-09-01T07:39:11;19.00;;;16.87;;
2320;SDS011;15376;48.540;9.268;2022-09-01T07:41:38;17.80;;;16.10;;
2320;SDS011;15376;48.540;9.268;2022-09-01T07:44:06;16.33;;;14.37;;
2320;SDS011;15376;48.540;9.268;2022-09-01T07:46:34;19.10;;;17.30;;
2320;SDS011;15376;48.540;9.268;2022-09-01T07:49:00;17.00;;;15.50;;
2320;SDS011;15376;48.540;9.268;2022-09-01T07:51:27;15.47;;;13.97;;
2320;SDS011;15376;48.540;9.268;2022-09-01T07:53:54;16.77;;;15.30;;
2320;SDS011;15376;48.540;9.268;2022-09-01T07:56:21;18.47;;;15.57;;
2320;SDS011;15376;48.540;9.268;2022-09-01T07:58:48;13.27;;;12.13;;
2320;SDS011;15376;48.540;9.268;2022-09-01T08:01:20;15.10;;;13.53;;
2320;SDS011;15376;48.540;9.268;2022-09-01T08:03:49;15.80;;;14.20;;
2320;SDS011;15376;48.540;9.268;2022-09-01T08:06:17;15.70;;;14.10;;
2320;SDS011;15376;48.540;9.268;2022-09-01T08:08:46;15.10;;;13.70;;
2320;SDS011;15376;48.540;9.268;2022-09-01T08:11:17;14.50;;;13.20;;
2320;SDS011;15376;48.540;9.268;2022-09-01T08:13:46;15.10;;;13.60;;
2320;SDS011;15376;48.540;9.268;2022-09-01T08:16:12;13.97;;;12.77;;
2320;SDS011;15376;48.540;9.268;2022-09-01T08:18:38;13.50;;;12.30;;
2320;SDS011;15376;48.540;9.268;2022-09-01T08:21:05;13.43;;;12.33;;
2320;SDS011;15376;48.540;9.268;2022-09-01T08:23:32;12.47;;;11.37;;
2320;SDS011;15376;48.540;9.268;2022-09-01T08:25:57;11.10;;;10.10;;
2320;SDS011;15376;48.540;9.268;2022-09-01T08:28:23;11.70;;;10.60;;
2320;SDS011;15376;48.540;9.268;2022-09-01T08:30:48;12.17;;;11.17;;
2320;SDS011;15376;48.540;9.268;2022-09-01T08:33:14;12.73;;;11.50;;
2320;SDS011;15376;48.540;9.268;2022-09-01T08:35:40;11.97;;;10.80;;
2320;SDS011;15376;48.540;9.268;2022-09-01T08:38:08;11.43;;;10.30;;
2320;SDS011;15376;48.540;9.268;2022-09-01T08:40:34;12.10;;;10.97;;
2320;SDS011;15376;48.540;9.268;2022-09-01T08:48:53;11.40;;;10.40;;
2320;SDS011;15376;48.540;9.268;2022-09-01T08:51:14;11.20;;;10.03;;
2320;SDS011;15376;48.540;9.268;2022-09-01T08:53:49;9.40;;;8.60;;
2320;SDS011;15376;48.540;9.268;2022-09-01T08:56:23;10.47;;;9.57;;
2320;SDS011;15376;48.540;9.268;2022-09-01T08:58:49;7.70;;;7.03;;
2320;SDS011;15376;48.540;9.268;2022-09-01T09:01:17;7.60;;;7.00;;
2320;SDS011;15376;48.540;9.268;2022-09-01T09:09:39;5.53;;;5.13;;
2320;SDS011;15376;48.540;9.268;2022-09-01T09:12:13;4.67;;;4.27;;
2320;SDS011;15376;48.540;9.268;2022-09-01T09:17:57;4.57;;;4.17;;
2320;SDS011;15376;48.540;9.268;2022-09-01T09:20:26;4.80;;;4.40;;
2320;SDS011;15376;48.540;9.268;2022-09-01T09:22:52;4.30;;;4.00;;
2320;SDS011;15376;48.540;9.268;2022-09-01T09:25:19;5.00;;;4.20;;
2320;SDS011;15376;48.540;9.268;2022-09-01T09:27:46;7.23;;;3.80;;
2320;SDS011;15376;48.540;9.268;2022-09-01T09:30:23;4.33;;;4.03;;
2320;SDS011;15376;48.540;9.268;2022-09-01T09:32:52;4.13;;;3.80;;
2320;SDS011;15376;48.540;9.268;2022-09-01T09:35:24;4.53;;;4.10;;
2320;SDS011;15376;48.540;9.268;2022-09-01T09:37:55;4.10;;;3.87;;
2320;SDS011;15376;48.540;9.268;2022-09-01T09:43:59;3.90;;;3.60;;
2320;SDS011;15376;48.540;9.268;2022-09-01T09:46:37;4.20;;;3.90;;
2320;SDS011;15376;48.540;9.268;2022-09-01T09:49:23;3.97;;;3.67;;
2320;SDS011;15376;48.540;9.268;2022-09-01T09:51:54;4.60;;;4.30;;
2320;SDS011;15376;48.540;9.268;2022-09-01T09:54:23;3.90;;;3.70;;
2320;SDS011;15376;48.540;9.268;2022-09-01T09:57:01;5.27;;;4.83;;
2320;SDS011;15376;48.540;9.268;2022-09-01T10:02:43;3.57;;;3.37;;
2320;SDS011;15376;48.540;9.268;2022-09-01T10:08:12;4.07;;;3.77;;
2320;SDS011;15376;48.540;9.268;2022-09-01T10:11:01;4.70;;;4.40;;
2320;SDS011;15376;48.540;9.268;2022-09-01T10:13:28;5.37;;;4.87;;
2320;SDS011;15376;48.540;9.268;2022-09-01T10:15:56;4.57;;;4.17;;
2320;SDS011;15376;48.540;9.268;2022-09-01T10:18:32;4.17;;;3.87;;
2320;SDS011;15376;48.540;9.268;2022-09-01T10:23:42;4.47;;;4.17;;
2320;SDS011;15376;48.540;9.268;2022-09-01T10:28:45;4.23;;;3.83;;
2320;SDS011;15376;48.540;9.268;2022-09-01T10:31:15;5.07;;;4.63;;
2320;SDS011;15376;48.540;9.268;2022-09-01T10:33:41;4.50;;;4.10;;
2320;SDS011;15376;48.540;9.268;2022-09-01T10:36:07;4.63;;;4.23;;
2320;SDS011;15376;48.540;9.268;2022-09-01T10:38:33;4.03;;;3.83;;
2320;SDS011;15376;48.540;9.268;2022-09-01T10:40:59;4.17;;;3.87;;
2320;SDS011;15376;48.540;9.268;2022-09-01T10:48:47;6.27;;;4.20;;
2320;SDS011;15376;48.540;9.268;2022-09-01T10:53:49;4.67;;;4.07;;
2320;SDS011;15376;48.540;9.268;2022-09-01T11:04:04;4.20;;;3.90;;
2320;SDS011;15376;48.540;9.268;2022-09-01T11:06:32;4.20;;;3.90;;
2320;SDS011;15376;48.540;9.268;2022-09-01T11:14:55;3.90;;;3.70;;
2320;SDS011;15376;48.540;9.268;2022-09-01T11:17:38;4.43;;;4.10;;
2320;SDS011;15376;48.540;9.268;2022-09-01T11:20:23;4.20;;;3.93;;
2320;SDS011;15376;48.540;9.268;2022-09-01T11:25:42;5.03;;;4.63;;
2320;SDS011;15376;48.540;9.268;2022-09-01T11:36:11;3.60;;;3.40;;
2320;SDS011;15376;48.540;9.268;2022-09-01T11:38:47;3.67;;;3.37;;
2320;SDS011;15376;48.540;9.268;2022-09-01T11:41:22;4.47;;;4.17;;
2320;SDS011;15376;48.540;9.268;2022-09-01T11:43:51;4.63;;;4.33;;
2320;SDS011;15376;48.540;9.268;2022-09-01T11:46:24;4.63;;;4.33;;
2320;SDS011;15376;48.540;9.268;2022-09-01T11:48:52;4.43;;;4.03;;
2320;SDS011;15376;48.540;9.268;2022-09-01T11:51:19;4.03;;;3.70;;
2320;SDS011;15376;48.540;9.268;2022-09-01T11:53:45;4.70;;;4.30;;
2320;SDS011;15376;48.540;9.268;2022-09-01T11:56:18;4.23;;;3.93;;
2320;SDS011;15376;48.540;9.268;2022-09-01T11:58:49;6.07;;;3.87;;
2320;SDS011;15376;48.540;9.268;2022-09-01T12:01:17;4.70;;;4.40;;
2320;SDS011;15376;48.540;9.268;2022-09-01T12:03:45;5.50;;;4.63;;
2320;SDS011;15376;48.540;9.268;2022-09-01T12:06:18;4.60;;;4.30;;
2320;SDS011;15376;48.540;9.268;2022-09-01T12:08:54;4.33;;;3.93;;
2320;SDS011;15376;48.540;9.268;2022-09-01T12:11:26;5.03;;;4.60;;
2320;SDS011;15376;48.540;9.268;2022-09-01T12:13:57;4.30;;;3.90;;
2320;SDS011;15376;48.540;9.268;2022-09-01T12:16:22;4.30;;;4.00;;
2320;SDS011;15376;48.540;9.268;2022-09-01T12:18:49;4.93;;;4.33;;
2320;SDS011;15376;48.540;9.268;2022-09-01T12:21:18;4.00;;;3.80;;
2320;SDS011;15376;48.540;9.268;2022-09-01T12:23:49;4.80;;;4.40;;
2320;SDS011;15376;48.540;9.268;2022-09-01T12:26:19;4.30;;;4.00;;
2320;SDS011;15376;48.540;9.268;2022-09-01T12:28:49;3.40;;;3.20;;
2320;SDS011;15376;48.540;9.268;2022-09-01T12:31:17;4.37;;;4.07;;
2320;SDS011;15376;48.540;9.268;2022-09-01T12:33:46;5.63;;;4.30;;
2320;SDS011;15376;48.540;9.268;2022-09-01T12:38:43;4.83;;;4.43;;
2320;SDS011;15376;48.540;9.268;2022-09-01T12:46:52;3.90;;;3.67;;
2320;SDS011;15376;48.540;9.268;2022-09-01T12:49:18;4.17;;;3.80;;
2320;SDS011;15376;48.540;9.268;2022-09-01T12:51:47;4.60;;;4.20;;
2320;SDS011;15376;48.540;9.268;2022-09-01T12:54:13;4.40;;;4.10;;
2320;SDS011;15376;48.540;9.268;2022-09-01T12:56:39;4.10;;;3.70;;
2320;SDS011;15376;48.540;9.268;2022-09-01T12:59:13;4.17;;;3.87;;
2320;SDS011;15376;48.540;9.268;2022-09-01T13:01:44;3.63;;;3.43;;
2320;SDS011;15376;48.540;9.268;2022-09-01T13:06:55;4.73;;;4.43;;
2320;SDS011;15376;48.540;9.268;2022-09-01T13:09:25;4.27;;;3.97;;
2320;SDS011;15376;48.540;9.268;2022-09-01T13:11:50;4.37;;;4.07;;
2320;SDS011;15376;48.540;9.268;2022-09-01T13:14:16;3.97;;;3.77;;
2320;SDS011;15376;48.540;9.268;2022-09-01T13:16:42;4.30;;;3.90;;
2320;SDS011;15376;48.540;9.268;2022-09-01T13:19:08;3.73;;;3.43;;
2320;SDS011;15376;48.540;9.268;2022-09-01T13:21:33;4.17;;;3.87;;
2320;SDS011;15376;48.540;9.268;2022-09-01T13:24:01;4.40;;;4.10;;
2320;SDS011;15376;48.540;9.268;2022-09-01T13:26:28;3.90;;;3.60;;
2320;SDS011;15376;48.540;9.268;2022-09-01T13:28:55;3.70;;;3.40;;
2320;SDS011;15376;48.540;9.268;2022-09-01T13:31:21;3.90;;;3.67;;
2320;SDS011;15376;48.540;9.268;2022-09-01T13:33:47;3.87;;;3.57;;
2320;SDS011;15376;48.540;9.268;2022-09-01T13:36:13;3.80;;;3.60;;
2320;SDS011;15376;48.540;9.268;2022-09-01T13:38:39;3.67;;;3.47;;
2320;SDS011;15376;48.540;9.268;2022-09-01T13:41:04;4.20;;;3.90;;
2320;SDS011;15376;48.540;9.268;2022-09-01T13:43:30;3.80;;;3.60;;
2320;SDS011;15376;48.540;9.268;2022-09-01T13:45:56;3.57;;;3.37;;
2320;SDS011;15376;48.540;9.268;2022-09-01T13:48:21;3.57;;;3.37;;
2320;SDS011;15376;48.540;9.268;2022-09-01T13:50:47;3.47;;;3.27;;
2320;SDS011;15376;48.540;9.268;2022-09-01T13:53:14;3.87;;;3.57;;
2320;SDS011;15376;48.540;9.268;2022-09-01T13:55:41;4.57;;;4.10;;
2320;SDS011;15376;48.540;9.268;2022-09-01T13:58:07;4.00;;;3.70;;
2320;SDS011;15376;48.540;9.268;2022-09-01T14:00:34;4.00;;;3.70;;
2320;SDS011;15376;48.540;9.268;2022-09-01T14:03:04;3.90;;;3.60;;
2320;SDS011;15376;48.540;9.268;2022-09-01T14:05:32;3.87;;;3.67;;
2320;SDS011;15376;48.540;9.268;2022-09-01T14:08:00;4.83;;;4.00;;
2320;SDS011;15376;48.540;9.268;2022-09-01T14:10:27;4.03;;;3.73;;
2320;SDS011;15376;48.540;9.268;2022-09-01T14:12:53;4.47;;;4.17;;
2320;SDS011;15376;48.540;9.268;2022-09-01T14:15:19;3.90;;;3.60;;
2320;SDS011;15376;48.540;9.268;2022-09-01T14:17:46;3.83;;;3.63;;
2320;SDS011;15376;48.540;9.268;2022-09-01T14:20:15;4.17;;;3.87;;
2320;SDS011;15376;48.540;9.268;2022-09-01T14:22:43;3.77;;;3.57;;
2320;SDS011;15376;48.540;9.268;2022-09-01T14:25:09;4.00;;;3.70;;
2320;SDS011;15376;48.540;9.268;2022-09-01T14:27:35;4.50;;;4.10;;
2320;SDS011;15376;48.540;9.268;2022-09-01T14:30:01;5.10;;;4.63;;
2320;SDS011;15376;48.540;9.268;2022-09-01T14:32:28;4.43;;;4.03;;
2320;SDS011;15376;48.540;9.268;2022-09-01T14:34:53;4.20;;;3.90;;
2320;SDS011;15376;48.540;9.268;2022-09-01T14:37:19;4.03;;;3.83;;
2320;SDS011;15376;48.540;9.268;2022-09-01T14:39:51;4.13;;;3.73;;
2320;SDS011;15376;48.540;9.268;2022-09-01T14:42:19;4.20;;;3.90;;
2320;SDS011;15376;48.540;9.268;2022-09-01T14:44:45;3.50;;;3.30;;
2320;SDS011;15376;48.540;9.268;2022-09-01T14:47:11;4.30;;;4.00;;
2320;SDS011;15376;48.540;9.268;2022-09-01T14:49:37;3.90;;;3.60;;
2320;SDS011;15376;48.540;9.268;2022-09-01T14:52:04;6.90;;;4.87;;
2320;SDS011;15376;48.540;9.268;2022-09-01T14:54:32;4.80;;;4.50;;
2320;SDS011;15376;48.540;9.268;2022-09-01T14:56:59;4.37;;;4.07;;
2320;SDS011;15376;48.540;9.268;2022-09-01T14:59:25;4.30;;;4.00;;
2320;SDS011;15376;48.540;9.268;2022-09-01T15:01:50;4.67;;;4.37;;
2320;SDS011;15376;48.540;9.268;2022-09-01T15:04:17;5.40;;;4.90;;
2320;SDS011;15376;48.540;9.268;2022-09-01T15:06:42;4.20;;;3.90;;
2320;SDS011;15376;48.540;9.268;2022-09-01T15:09:07;4.50;;;4.00;;
2320;SDS011;15376;48.540;9.268;2022-09-01T15:11:33;4.40;;;4.10;;
2320;SDS011;15376;48.540;9.268;2022-09-01T15:13:58;4.70;;;4.40;;
2320;SDS011;15376;48.540;9.268;2022-09-01T15:16:24;5.10;;;4.20;;
2320;SDS011;15376;48.540;9.268;2022-09-01T15:18:51;5.23;;;4.90;;
2320;SDS011;15376;48.540;9.268;2022-09-01T15:21:38;4.60;;;4.30;;
2320;SDS011;15376;48.540;9.268;2022-09-01T15:24:03;4.27;;;3.97;;
2320;SDS011;15376;48.540;9.268;2022-09-01T15:26:30;4.60;;;4.20;;
2320;SDS011;15376;48.540;9.268;2022-09-01T15:28:56;4.10;;;3.80;;
2320;SDS011;15376;48.540;9.268;2022-09-01T15:31:21;5.67;;;4.00;;
2320;SDS011;15376;48.540;9.268;2022-09-01T15:33:48;4.80;;;4.40;;
2320;SDS011;15376;48.540;9.268;2022-09-01T15:36:18;3.83;;;3.53;;
2320;SDS011;15376;48.540;9.268;2022-09-01T15:38:45;4.70;;;4.30;;
2320;SDS011;15376;48.540;9.268;2022-09-01T15:41:15;4.90;;;4.50;;
2320;SDS011;15376;48.540;9.268;2022-09-01T15:43:44;4.60;;;4.30;;
2320;SDS011;15376;48.540;9.268;2022-09-01T15:46:10;4.37;;;4.07;;
2320;SDS011;15376;48.540;9.268;2022-09-01T15:48:36;4.40;;;4.10;;
2320;SDS011;15376;48.540;9.268;2022-09-01T15:53:46;5.60;;;4.60;;
2320;SDS011;15376;48.540;9.268;2022-09-01T15:56:16;5.07;;;4.77;;
2320;SDS011;15376;48.540;9.268;2022-09-01T15:58:45;4.63;;;4.33;;
2320;SDS011;15376;48.540;9.268;2022-09-01T16:01:11;4.40;;;4.10;;
2320;SDS011;15376;48.540;9.268;2022-09-01T16:03:37;4.07;;;3.87;;
2320;SDS011;15376;48.540;9.268;2022-09-01T16:06:03;4.63;;;4.23;;
2320;SDS011;15376;48.540;9.268;2022-09-01T16:08:30;4.20;;;3.90;;
2320;SDS011;15376;48.540;9.268;2022-09-01T16:10:57;4.73;;;4.43;;